Time;durP1;ratioP1;P1;durP2;ratioP2;P2;SDS_P1;SDS_P2;PMS_P1;PMS_P2;Temp;Humidity;BMP_temperature;BMP_pressure;BME280_temperature;BME280_humidity;BME280_pressure;Samples;Min_cycle;Max_cycle;Signal;HPM_P1;HPM_P2
2023/06/03 00:00:11;;;;;;;5.25;1.58;;;;;;;7.92;68.30;101744.22;2073901;28;20157;-72
2023/06/03 00:01:14;;;;;;;4.22;1.35;;;;;;;7.92;68.26;101753.06;2058739;28;20319;-72
2023/06/03 00:02:15;;;;;;;3.22;1.50;;;;;;;7.93;68.29;101743.19;2066167;28;20045;-72
2023/06/03 00:03:18;;;;;;;3.55;1.25;;;;;;;7.97;68.29;101742.47;2066215;28;20838;-71
2023/06/03 00:04:21;;;;;;;4.55;1.30;;;;;;;8.02;68.34;101739.91;2074349;28;20046;-71
2023/06/03 00:05:26;;;;;;;4.30;1.17;;;;;;;8.04;68.09;101745.88;2082600;28;20022;-71
2023/06/03 00:06:29;;;;;;;4.72;1.25;;;;;;;7.99;67.85;101735.03;2065924;28;20035;-72
2023/06/03 00:07:32;;;;;;;2.13;1.08;;;;;;;8.02;68.10;101752.50;2058994;28;20142;-72
2023/06/03 00:08:34;;;;;;;2.30;1.02;;;;;;;8.00;68.08;101744.69;2058170;28;20050;-71
2023/06/03 00:09:35;;;;;;;4.15;1.00;;;;;;;8.00;68.24;101750.03;2058272;28;20047;-71
2023/06/03 00:10:37;;;;;;;1.65;0.93;;;;;;;7.97;67.97;101745.16;2074125;28;20045;-70
2023/06/03 00:11:40;;;;;;;4.55;1.50;;;;;;;8.00;68.21;101750.03;2074549;28;20033;-71
2023/06/03 00:12:45;;;;;;;1.98;1.08;;;;;;;8.03;68.19;101744.22;2066315;28;20958;-71
2023/06/03 00:13:50;;;;;;;1.63;1.02;;;;;;;8.05;68.20;101741.31;2082486;28;20041;-71
2023/06/03 00:14:54;;;;;;;4.45;1.42;;;;;;;8.09;68.02;101751.34;2074249;28;20045;-71
2023/06/03 00:16:04;;;;;;;2.65;0.90;;;;;;;8.11;67.97;101746.56;2075523;28;20030;-71
2023/06/03 00:17:08;;;;;;;3.75;1.00;;;;;;;8.16;68.10;101747.72;2074409;28;20044;-72
2023/06/03 00:18:09;;;;;;;5.65;1.30;;;;;;;8.17;67.98;101741.34;2066140;28;20790;-72
2023/06/03 00:19:14;;;;;;;3.17;1.60;;;;;;;8.18;67.90;101737.59;2074797;28;20108;-72
2023/06/03 00:20:18;;;;;;;1.90;1.20;;;;;;;8.19;67.81;101752.63;2082621;28;20135;-72
2023/06/03 00:21:24;;;;;;;1.95;1.13;;;;;;;8.16;67.78;101748.53;2065982;28;20838;-72
2023/06/03 00:22:27;;;;;;;4.28;1.30;;;;;;;8.11;67.80;101749.25;2058415;28;20122;-72
2023/06/03 00:23:32;;;;;;;3.72;1.40;;;;;;;8.06;67.50;101738.41;2067137;28;20109;-71
2023/06/03 00:24:32;;;;;;;3.88;1.42;;;;;;;8.02;67.99;101744.47;2074074;28;20080;-71
2023/06/03 00:25:34;;;;;;;2.45;1.15;;;;;;;7.98;68.11;101737.94;2074436;28;20688;-71
2023/06/03 00:26:37;;;;;;;1.95;0.90;;;;;;;7.96;68.35;101735.50;2074069;28;20030;-71
2023/06/03 00:27:41;;;;;;;3.60;1.10;;;;;;;7.95;68.32;101749.13;2076781;28;20048;-72
2023/06/03 00:28:42;;;;;;;1.75;0.90;;;;;;;7.98;68.41;101749.47;2082473;28;20030;-71
2023/06/03 00:29:47;;;;;;;2.60;1.65;;;;;;;7.96;68.51;101743.53;2082463;28;20801;-71
2023/06/03 00:30:53;;;;;;;3.55;1.00;;;;;;;7.89;68.42;101743.63;2058676;28;20934;-72
2023/06/03 00:31:55;;;;;;;2.38;1.15;;;;;;;7.92;68.70;101749.59;2067553;28;20049;-72
2023/06/03 00:32:56;;;;;;;2.33;1.27;;;;;;;7.95;68.85;101738.41;2074085;28;20042;-72
2023/06/03 00:33:58;;;;;;;2.22;1.10;;;;;;;7.98;68.97;101744.13;2058175;28;20862;-72
2023/06/03 00:35:08;;;;;;;2.38;1.00;;;;;;;8.02;68.64;101744.47;2074100;28;20065;-72
2023/06/03 00:36:16;;;;;;;;;;;;;;;7.98;68.49;101741.44;2067859;28;20080;-71
2023/06/03 00:37:17;;;;;;;2.42;0.80;;;;;;;7.91;68.53;101740.72;2074205;28;19929;-72
2023/06/03 00:38:22;;;;;;;3.45;0.93;;;;;;;7.93;68.58;101743.19;2074841;28;20041;-72
2023/06/03 00:39:24;;;;;;;6.50;1.27;;;;;;;7.92;68.60;101741.56;2082116;28;20037;-72
2023/06/03 00:40:26;;;;;;;2.25;0.80;;;;;;;7.92;68.66;101741.56;2066052;28;20034;-71
2023/06/03 00:41:27;;;;;;;2.17;0.98;;;;;;;7.92;68.63;101744.22;2058202;28;20082;-72
2023/06/03 00:42:31;;;;;;;2.67;0.90;;;;;;;7.91;68.48;101738.03;2058066;28;20031;-72
2023/06/03 00:43:36;;;;;;;2.63;0.75;;;;;;;7.91;68.76;101740.72;2066277;28;20062;-72
2023/06/03 00:44:40;;;;;;;2.40;1.00;;;;;;;7.94;68.66;101739.44;2059507;28;20095;-72
2023/06/03 00:45:42;;;;;;;4.85;1.10;;;;;;;7.94;68.57;101742.13;2066068;28;20043;-72
2023/06/03 00:46:43;;;;;;;3.03;1.00;;;;;;;7.94;68.63;101744.81;2065960;28;20035;-72
2023/06/03 00:47:46;;;;;;;2.95;1.50;;;;;;;7.95;68.58;101736.56;2066173;28;20031;-72
2023/06/03 00:48:50;;;;;;;4.95;1.00;;;;;;;7.97;68.59;101749.69;2074839;28;20743;-72
2023/06/03 00:49:53;;;;;;;1.38;0.90;;;;;;;7.94;68.33;101742.94;2066071;28;20041;-73
2023/06/03 00:50:57;;;;;;;2.88;1.00;;;;;;;7.90;68.39;101739.09;2074472;28;20161;-73
2023/06/03 00:52:06;;;;;;;2.50;1.00;;;;;;;7.84;68.63;101745.38;2075156;28;20030;-73
2023/06/03 00:53:09;;;;;;;2.10;0.98;;;;;;;7.87;68.81;101739.56;2073702;28;20156;-72
2023/06/03 00:54:10;;;;;;;2.78;1.00;;;;;;;7.87;69.12;101739.56;2065855;28;20038;-71
2023/06/03 00:55:13;;;;;;;2.92;0.95;;;;;;;7.85;68.55;101747.84;2065999;28;20929;-71
2023/06/03 00:56:16;;;;;;;4.00;1.60;;;;;;;7.86;68.76;101751.31;2073686;28;20089;-71
2023/06/03 00:57:25;;;;;;;2.33;1.00;;;;;;;7.86;68.86;101743.28;2058516;28;20035;-71
2023/06/03 00:58:27;;;;;;;1.77;0.80;;;;;;;7.81;68.47;101745.84;2059902;28;20098;-71
2023/06/03 00:59:28;;;;;;;2.58;0.82;;;;;;;7.77;68.82;101748.16;2066248;28;20932;-72
2023/06/03 01:00:30;;;;;;;2.05;0.82;;;;;;;7.77;68.93;101739.31;2065991;28;20094;-71
2023/06/03 01:01:35;;;;;;;2.13;0.80;;;;;;;7.71;68.75;101758.97;2075025;28;20061;-71
2023/06/03 01:02:43;;;;;;;2.80;1.00;;;;;;;7.72;69.04;101755.25;2081976;28;20038;-71
2023/06/03 01:03:47;;;;;;;3.80;0.98;;;;;;;7.72;68.88;101748.03;2066988;28;20963;-72
2023/06/03 01:04:50;;;;;;;1.65;0.88;;;;;;;7.61;68.99;101741.63;2058926;28;20052;-72
2023/06/03 01:06:19;;;;;;;2.08;1.20;;;;;;;7.58;69.19;101746.63;2058039;28;20039;-71
2023/06/03 01:07:28;;;;;;;3.03;1.00;;;;;;;7.54;69.23;101751.63;2061546;28;20128;-71
2023/06/03 01:08:48;;;;;;;3.38;0.90;;;;;;;7.57;69.78;101743.13;2075106;28;20039;-72
2023/06/03 01:10:00;;;;;;;;;;;;;;;7.58;69.60;101744.75;2077165;28;20033;-72
2023/06/03 01:11:14;;;;;;;2.13;0.90;;;;;;;7.61;69.71;101746.16;2091792;28;20057;-72
2023/06/03 01:12:15;;;;;;;2.90;0.88;;;;;;;7.62;69.60;101748.59;2086646;28;20053;-72
2023/06/03 01:13:51;;;;;;;3.40;0.70;;;;;;;7.65;69.53;101744.63;2057766;28;20554;-72
2023/06/03 01:14:57;;;;;;;1.35;0.75;;;;;;;7.68;69.37;101752.22;2062225;28;20066;-72
2023/06/03 01:16:04;;;;;;;1.77;0.77;;;;;;;7.70;69.63;101750.13;2058083;28;20051;-72
2023/06/03 01:17:10;;;;;;;;;;;;;;;7.69;69.25;101753.84;2057937;28;20075;-73
2023/06/03 01:18:15;;;;;;;4.72;0.98;;;;;;;7.69;69.20;101758.38;2064868;28;20752;-71
2023/06/03 01:19:49;;;;;;;4.82;0.93;;;;;;;7.69;69.27;101758.38;2056562;28;20153;-71
2023/06/03 01:20:53;;;;;;;1.70;1.02;;;;;;;7.73;69.30;101754.22;2073337;28;20034;-72
2023/06/03 01:22:00;;;;;;;2.13;0.90;;;;;;;7.78;69.39;101759.69;2064314;28;20476;-72
2023/06/03 01:23:13;;;;;;;2.88;0.82;;;;;;;7.79;69.23;101762.16;2066281;28;21073;-72
2023/06/03 01:24:18;;;;;;;2.33;1.00;;;;;;;7.83;69.12;101775.88;2072402;28;20145;-72
2023/06/03 01:25:20;;;;;;;1.80;0.80;;;;;;;7.92;69.02;101769.16;2072316;28;20042;-72
2023/06/03 01:26:22;;;;;;;1.15;0.70;;;;;;;7.97;68.86;101765.75;2072476;28;20065;-72
2023/06/03 01:27:27;;;;;;;3.33;0.85;;;;;;;7.98;68.71;101762.88;2075878;28;20210;-72
2023/06/03 01:28:29;;;;;;;1.63;0.90;;;;;;;7.92;68.37;101755.75;2080828;28;20042;-72
2023/06/03 01:29:30;;;;;;;1.73;0.63;;;;;;;7.86;68.20;101759.34;2064316;28;20220;-72
2023/06/03 01:30:32;;;;;;;1.85;0.80;;;;;;;7.81;68.48;101760.03;2064638;28;20739;-72
2023/06/03 01:31:37;;;;;;;2.90;0.90;;;;;;;7.80;68.40;101761.09;2056411;28;20043;-72
2023/06/03 01:32:41;;;;;;;1.48;0.80;;;;;;;7.69;68.57;101763.72;2074321;28;20269;-72
2023/06/03 01:33:46;;;;;;;2.53;0.90;;;;;;;7.59;68.94;101759.75;2088814;28;20034;-72
2023/06/03 01:34:50;;;;;;;2.00;0.88;;;;;;;7.56;68.98;101759.41;2072021;28;20427;-72
2023/06/03 01:35:55;;;;;;;2.80;0.80;;;;;;;7.50;69.28;101761.13;2057464;28;20071;-72
2023/06/03 01:36:57;;;;;;;1.17;0.75;;;;;;;7.44;69.49;101756.72;2065185;28;20211;-72
2023/06/03 01:37:59;;;;;;;2.55;0.88;;;;;;;7.45;69.46;101757.53;2065059;28;20138;-72
2023/06/03 01:39:03;;;;;;;4.85;1.00;;;;;;;7.51;69.65;101762.78;2073015;28;20065;-72
2023/06/03 01:40:09;;;;;;;2.42;1.00;;;;;;;7.50;69.58;101755.75;2072700;28;20030;-72
2023/06/03 01:41:12;;;;;;;1.20;0.60;;;;;;;7.51;69.56;101762.78;2065065;28;20034;-72
2023/06/03 01:42:13;;;;;;;2.83;0.80;;;;;;;7.44;69.78;101762.06;2056736;28;20043;-73
2023/06/03 01:43:18;;;;;;;3.08;0.90;;;;;;;7.42;69.93;101761.47;2057410;28;20993;-73
2023/06/03 01:44:22;;;;;;;1.00;0.60;;;;;;;7.40;70.05;101760.84;2064938;28;20038;-73
2023/06/03 01:45:32;;;;;;;2.53;0.80;;;;;;;7.42;70.11;101756.91;2073548;28;20034;-73
2023/06/03 01:46:38;;;;;;;1.70;0.90;;;;;;;7.41;70.05;101763.31;2082179;28;20038;-72
2023/06/03 01:47:39;;;;;;;1.85;0.60;;;;;;;7.43;70.25;101763.09;2079864;28;20168;-72
2023/06/03 01:48:42;;;;;;;1.90;0.63;;;;;;;7.52;70.32;101763.59;2056361;28;20103;-72
2023/06/03 01:49:45;;;;;;;1.90;0.75;;;;;;;7.58;70.12;101774.19;2064611;28;20046;-72
2023/06/03 01:50:49;;;;;;;1.10;0.70;;;;;;;7.56;69.84;101765.56;2064591;28;20293;-73
2023/06/03 01:51:54;;;;;;;4.47;0.80;;;;;;;7.58;69.66;101758.13;2073473;28;21418;-73
2023/06/03 01:52:59;;;;;;;3.83;0.88;;;;;;;7.55;69.63;101761.25;2073869;28;20862;-72
2023/06/03 01:54:02;;;;;;;2.45;0.77;;;;;;;7.55;69.88;101763.94;2082063;28;20936;-72
2023/06/03 01:55:06;;;;;;;2.53;0.77;;;;;;;7.54;69.85;101762.31;2088925;28;20226;-73
2023/06/03 01:56:09;;;;;;;2.15;0.80;;;;;;;7.54;69.62;101761.50;2065512;28;20216;-72
2023/06/03 01:57:10;;;;;;;2.40;0.80;;;;;;;7.57;69.96;101756.50;2056691;28;21094;-72
2023/06/03 01:58:19;;;;;;;2.47;0.82;;;;;;;7.55;69.72;101774.66;2074501;28;20299;-72
2023/06/03 01:59:24;;;;;;;2.28;0.70;;;;;;;7.54;69.85;101756.97;2075239;28;20065;-71
2023/06/03 02:00:26;;;;;;;2.08;1.02;;;;;;;7.55;69.90;101763.13;2066058;28;20290;-71
2023/06/03 02:01:28;;;;;;;1.55;0.70;;;;;;;7.52;69.84;101761.72;2082370;28;20042;-71
2023/06/03 02:02:32;;;;;;;1.52;0.90;;;;;;;7.49;69.83;101754.16;2098540;28;20036;-71
2023/06/03 02:03:34;;;;;;;1.65;0.80;;;;;;;7.47;69.91;101764.28;2081280;28;20252;-71
2023/06/03 02:04:35;;;;;;;1.75;0.60;;;;;;;7.46;69.91;101765.31;2074046;28;21064;-73
2023/06/03 02:05:38;;;;;;;1.80;0.80;;;;;;;7.50;70.02;101760.31;2073877;28;20129;-73
2023/06/03 02:06:52;;;;;;;2.42;0.98;;;;;;;7.50;70.07;101771.81;2066539;28;20035;-72
2023/06/03 02:07:56;;;;;;;4.15;1.65;;;;;;;7.52;69.95;101764.38;2069904;28;20211;-71
2023/06/03 02:09:00;;;;;;;1.63;0.80;;;;;;;7.54;70.08;101765.00;2057725;28;20031;-72
2023/06/03 02:10:04;;;;;;;2.83;0.85;;;;;;;7.56;70.00;101770.09;2067430;28;20039;-72
2023/06/03 02:11:10;;;;;;;1.70;0.70;;;;;;;7.52;69.99;101785.81;2073218;28;20034;-72
2023/06/03 02:12:15;;;;;;;2.05;0.65;;;;;;;7.49;69.85;101770.19;2067979;28;20990;-71
2023/06/03 02:13:16;;;;;;;2.03;0.77;;;;;;;7.45;69.73;101770.91;2074193;28;20761;-71
2023/06/03 02:14:20;;;;;;;1.63;0.60;;;;;;;7.44;69.85;101780.78;2082003;28;20042;-71
2023/06/03 02:15:22;;;;;;;1.35;0.80;;;;;;;7.50;70.14;101771.00;2089309;28;20034;-71
2023/06/03 02:16:25;;;;;;;1.85;0.80;;;;;;;7.51;69.90;101776.16;2068678;28;20269;-71
2023/06/03 02:17:28;;;;;;;2.75;0.60;;;;;;;7.48;69.57;101779.28;2049468;28;20040;-71
2023/06/03 02:18:31;;;;;;;1.77;0.80;;;;;;;7.49;69.67;101772.06;2057471;28;20253;-70
2023/06/03 02:19:35;;;;;;;2.40;0.60;;;;;;;7.43;69.55;101768.44;2065582;28;20042;-70
2023/06/03 02:20:38;;;;;;;1.50;0.77;;;;;;;7.44;69.98;101770.09;2058558;28;20031;-70
2023/06/03 02:21:42;;;;;;;3.53;0.70;;;;;;;7.41;69.77;101770.53;2065693;28;20041;-71
2023/06/03 02:22:45;;;;;;;1.30;0.75;;;;;;;7.36;69.94;101786.44;2065428;28;20778;-71
2023/06/03 02:23:51;;;;;;;2.60;0.80;;;;;;;7.39;70.02;101767.25;2057996;28;20069;-72
2023/06/03 02:24:57;;;;;;;3.63;0.75;;;;;;;7.45;70.19;101769.03;2058466;28;20224;-72
2023/06/03 02:26:01;;;;;;;2.53;0.70;;;;;;;7.48;69.92;101773.13;2066765;28;20211;-71
2023/06/03 02:27:09;;;;;;;1.55;0.80;;;;;;;7.46;69.68;101770.66;2074526;28;20209;-72
2023/06/03 02:28:12;;;;;;;1.35;0.70;;;;;;;7.41;70.00;101773.22;2065649;28;20039;-72
2023/06/03 02:29:18;;;;;;;2.20;0.80;;;;;;;7.41;69.95;101770.53;2066785;28;20046;-72
2023/06/03 02:30:20;;;;;;;0.77;0.57;;;;;;;7.46;70.15;101777.88;2073245;28;20034;-72
2023/06/03 02:31:32;;;;;;;2.58;0.60;;;;;;;7.47;70.02;101780.34;2073910;28;20038;-72
2023/06/03 02:32:36;;;;;;;3.42;0.82;;;;;;;7.48;70.05;101767.75;2073264;28;20113;-71
2023/06/03 02:33:40;;;;;;;3.35;0.82;;;;;;;7.51;70.09;101778.81;2074193;28;20160;-71
2023/06/03 02:34:43;;;;;;;1.52;0.52;;;;;;;7.58;70.33;101784.88;2081698;28;20849;-72
2023/06/03 02:35:45;;;;;;;0.70;0.57;;;;;;;7.59;69.74;101781.16;2081730;28;20213;-72
2023/06/03 02:36:49;;;;;;;1.52;0.68;;;;;;;7.65;69.97;101790.97;2074151;28;20046;-72
2023/06/03 02:37:50;;;;;;;3.13;0.70;;;;;;;7.61;69.57;101789.78;2090196;28;20037;-72
2023/06/03 02:38:54;;;;;;;1.25;0.60;;;;;;;7.59;69.67;101783.84;2073164;28;20288;-72
2023/06/03 02:39:56;;;;;;;1.48;0.73;;;;;;;7.60;69.55;101788.16;2050188;28;20910;-72
2023/06/03 02:40:59;;;;;;;1.25;0.68;;;;;;;7.54;69.37;101796.28;2065724;28;20045;-71
2023/06/03 02:42:02;;;;;;;2.75;0.70;;;;;;;7.46;69.61;101784.03;2066100;28;20054;-72
2023/06/03 02:43:06;;;;;;;2.17;0.80;;;;;;;7.41;69.67;101786.59;2065419;28;20298;-72
2023/06/03 02:44:08;;;;;;;1.85;0.82;;;;;;;7.38;70.03;101776.34;2063620;28;20153;-72
2023/06/03 02:45:10;;;;;;;2.45;0.75;;;;;;;7.39;70.32;101783.31;2081656;28;20845;-71
2023/06/03 02:46:12;;;;;;;1.00;0.70;;;;;;;7.38;70.32;101792.41;2081871;28;20204;-72
2023/06/03 02:47:14;;;;;;;2.45;0.60;;;;;;;7.33;70.18;101798.41;2073529;28;20237;-71
2023/06/03 02:48:15;;;;;;;0.98;0.50;;;;;;;7.31;70.32;101791.66;2066021;28;20239;-72
2023/06/03 02:49:21;;;;;;;2.30;0.73;;;;;;;7.30;70.25;101792.69;2065986;28;20235;-72
2023/06/03 02:50:25;;;;;;;2.92;0.75;;;;;;;7.29;70.58;101791.09;2082524;28;20210;-72
2023/06/03 02:51:26;;;;;;;1.45;0.73;;;;;;;7.31;70.40;101788.97;2073112;28;20356;-72
2023/06/03 02:52:28;;;;;;;0.93;0.50;;;;;;;7.33;70.48;101795.75;2065635;28;20223;-72
2023/06/03 02:53:33;;;;;;;1.63;0.70;;;;;;;7.40;70.44;101793.78;2073903;28;21053;-72
2023/06/03 02:54:37;;;;;;;4.13;0.70;;;;;;;7.48;70.67;101792.66;2073433;28;20037;-72
2023/06/03 02:55:40;;;;;;;2.30;0.60;;;;;;;7.56;70.28;101788.84;2065855;28;20235;-71
2023/06/03 02:56:42;;;;;;;1.02;0.50;;;;;;;7.61;70.29;101799.69;2073835;28;20093;-71
2023/06/03 02:57:44;;;;;;;1.67;0.73;;;;;;;7.64;70.39;101794.69;2065481;28;20105;-71
2023/06/03 02:58:45;;;;;;;1.45;0.65;;;;;;;7.68;70.08;101788.88;2073725;28;20137;-73
2023/06/03 02:59:47;;;;;;;1.50;0.90;;;;;;;7.71;69.93;101799.13;2065314;28;20104;-72
2023/06/03 03:00:51;;;;;;;2.15;0.52;;;;;;;7.71;70.19;101789.22;2065787;28;20378;-72
2023/06/03 03:01:55;;;;;;;1.48;0.80;;;;;;;7.77;70.19;101784.84;2082103;28;20080;-72
2023/06/03 03:02:56;;;;;;;2.42;0.70;;;;;;;7.82;69.91;101795.69;2081339;28;20273;-72
2023/06/03 03:03:57;;;;;;;1.88;0.70;;;;;;;7.82;70.05;101801.84;2081443;28;20249;-72
2023/06/03 03:04:59;;;;;;;1.63;0.80;;;;;;;7.81;69.97;101786.81;2089887;28;20034;-72
2023/06/03 03:06:06;;;;;;;0.93;0.60;;;;;;;7.77;69.99;101790.19;2081586;28;20034;-72
2023/06/03 03:07:08;;;;;;;2.45;0.82;;;;;;;7.82;70.26;101796.50;2082368;28;20034;-72
2023/06/03 03:08:10;;;;;;;1.33;0.90;;;;;;;7.88;70.16;101790.22;2065105;28;20038;-73
2023/06/03 03:09:17;;;;;;;2.20;0.65;;;;;;;7.89;70.01;101812.44;2067169;28;20138;-73
2023/06/03 03:10:20;;;;;;;1.52;0.63;;;;;;;7.88;69.62;101794.72;2090007;28;20252;-73
2023/06/03 03:11:24;;;;;;;2.03;0.68;;;;;;;7.83;69.82;101802.66;2065276;28;20067;-73
2023/06/03 03:12:26;;;;;;;3.08;0.60;;;;;;;7.76;69.88;101796.59;2066078;28;20722;-72
2023/06/03 03:13:28;;;;;;;1.73;0.60;;;;;;;7.78;69.95;101791.81;2065522;28;20055;-72
2023/06/03 03:14:30;;;;;;;2.15;0.90;;;;;;;7.80;69.95;101798.56;2064921;28;20047;-72
2023/06/03 03:15:32;;;;;;;1.85;0.68;;;;;;;7.82;69.98;101790.31;2049209;28;20039;-72
2023/06/03 03:16:35;;;;;;;1.17;0.63;;;;;;;7.84;69.82;101802.41;2043488;28;20040;-72
2023/06/03 03:17:38;;;;;;;1.15;0.70;;;;;;;7.85;69.92;101797.91;2066148;28;20043;-72
2023/06/03 03:18:41;;;;;;;4.03;0.80;;;;;;;7.89;69.92;101797.19;2064844;28;20038;-72
2023/06/03 03:19:44;;;;;;;2.22;0.90;;;;;;;7.91;69.91;101794.28;2050130;28;20046;-72
2023/06/03 03:20:46;;;;;;;1.58;0.85;;;;;;;7.94;69.95;101804.53;2057262;28;20243;-72
2023/06/03 03:21:50;;;;;;;2.47;0.90;;;;;;;7.98;69.84;101792.31;2057851;28;20239;-72
2023/06/03 03:22:59;;;;;;;2.00;0.75;;;;;;;8.01;69.50;101794.53;2073605;28;20098;-73
2023/06/03 03:24:01;;;;;;;2.08;0.80;;;;;;;8.08;69.51;101794.44;2073343;28;20074;-73
2023/06/03 03:25:06;;;;;;;1.98;0.93;;;;;;;8.08;69.39;101800.59;2049275;28;20238;-73
2023/06/03 03:26:15;;;;;;;3.75;0.73;;;;;;;8.09;69.26;101802.22;2052275;28;20036;-73
2023/06/03 03:27:19;;;;;;;2.72;0.90;;;;;;;8.08;69.11;101799.78;2068914;28;20035;-72
2023/06/03 03:28:21;;;;;;;1.85;0.85;;;;;;;8.07;69.21;101806.19;2065188;28;20755;-73
2023/06/03 03:29:24;;;;;;;1.77;0.82;;;;;;;8.09;69.08;101796.06;2064859;28;20223;-73
2023/06/03 03:30:29;;;;;;;2.83;1.02;;;;;;;8.16;69.27;101802.09;2083469;28;20758;-72
2023/06/03 03:31:32;;;;;;;1.90;0.75;;;;;;;8.21;69.14;101809.47;2091113;28;20055;-72
2023/06/03 03:32:36;;;;;;;1.90;1.00;;;;;;;8.27;69.10;101808.53;2074441;28;20034;-73
2023/06/03 03:33:38;;;;;;;1.92;1.10;;;;;;;8.32;68.94;101806.81;2067604;28;20065;-73
2023/06/03 03:34:41;;;;;;;2.92;1.00;;;;;;;8.36;69.07;101799.94;2074606;28;20038;-73
2023/06/03 03:35:43;;;;;;;6.07;1.10;;;;;;;8.43;68.68;101807.06;2067111;28;20039;-72
2023/06/03 03:36:45;;;;;;;2.05;0.88;;;;;;;8.51;68.61;101812.06;2066259;28;20222;-72
2023/06/03 03:37:58;;;;;;;1.75;0.80;;;;;;;8.57;68.50;101820.00;2074344;28;20035;-72
2023/06/03 03:39:04;;;;;;;4.32;0.88;;;;;;;8.66;68.69;101811.59;2053230;28;20094;-72
2023/06/03 03:40:23;;;;;;;2.40;1.17;;;;;;;8.70;68.29;101810.91;2060288;28;20035;-72
2023/06/03 03:41:30;;;;;;;2.22;1.00;;;;;;;8.72;67.98;101818.69;2071693;28;20033;-72
2023/06/03 03:42:32;;;;;;;1.45;1.00;;;;;;;8.74;67.88;101806.69;2066846;28;20057;-73
2023/06/03 03:43:37;;;;;;;3.03;1.05;;;;;;;8.73;67.56;101823.00;2051239;28;20050;-73
2023/06/03 03:44:43;;;;;;;3.47;1.20;;;;;;;8.70;67.83;101818.09;2060346;28;20038;-73
2023/06/03 03:45:47;;;;;;;3.33;1.00;;;;;;;8.75;67.91;101816.34;2081973;28;20836;-72
2023/06/03 03:46:59;;;;;;;2.28;0.90;;;;;;;8.85;67.50;101815.75;2058288;28;20039;-72
2023/06/03 03:48:02;;;;;;;3.05;0.90;;;;;;;8.92;67.69;101827.19;2060673;28;20732;-72
2023/06/03 03:49:06;;;;;;;3.30;1.30;;;;;;;8.99;67.62;101811.78;2059230;28;20031;-72
2023/06/03 03:50:27;;;;;;;6.47;1.20;;;;;;;9.07;67.36;101812.44;2050409;28;20047;-72
2023/06/03 03:51:30;;;;;;;2.88;1.17;;;;;;;9.09;66.97;101827.25;2047519;28;20035;-72
2023/06/03 03:52:36;;;;;;;2.80;0.90;;;;;;;9.18;66.60;101809.75;2060178;28;20142;-72
2023/06/03 03:53:45;;;;;;;2.63;1.10;;;;;;;9.22;66.73;101820.81;2066397;28;20162;-72
2023/06/03 03:54:52;;;;;;;1.95;0.95;;;;;;;9.31;66.09;101814.00;2068162;28;20112;-72
2023/06/03 03:55:59;;;;;;;3.95;1.42;;;;;;;9.34;65.76;101813.53;2059088;28;20043;-72
2023/06/03 03:57:12;;;;;;;4.82;1.05;;;;;;;9.57;65.86;101815.28;2053427;28;20827;-72
2023/06/03 03:58:22;;;;;;;1.45;1.02;;;;;;;9.80;65.23;101811.66;2061164;28;20077;-73
2023/06/03 03:59:27;;;;;;;4.03;1.10;;;;;;;9.96;64.67;101824.31;2065653;28;20078;-72
2023/06/03 04:00:33;;;;;;;2.17;1.00;;;;;;;10.10;64.69;101821.31;2067487;28;20035;-72
2023/06/03 04:01:39;;;;;;;2.60;0.80;;;;;;;10.25;63.82;101829.63;2066395;28;20031;-72
2023/06/03 04:02:53;;;;;;;5.30;0.90;;;;;;;10.50;64.08;101823.00;2071101;28;20157;-72
2023/06/03 04:04:00;;;;;;;1.02;0.60;;;;;;;10.65;63.19;101828.59;2074232;28;20030;-72
2023/06/03 04:05:04;;;;;;;1.35;0.68;;;;;;;10.80;62.73;101819.94;2075861;28;20956;-72
2023/06/03 04:06:10;;;;;;;1.48;0.70;;;;;;;10.93;61.86;101824.16;2074406;28;20082;-72
2023/06/03 04:07:17;;;;;;;2.78;0.90;;;;;;;11.08;61.34;101827.03;2067590;28;20793;-72
2023/06/03 04:08:36;;;;;;;3.60;1.33;;;;;;;11.20;60.83;101822.34;2059016;28;20047;-72
2023/06/03 04:09:39;;;;;;;3.03;0.55;;;;;;;11.31;60.84;101823.25;2079246;28;20031;-72
2023/06/03 04:10:41;;;;;;;1.10;0.47;;;;;;;11.46;60.78;101828.00;2082331;28;20036;-72
2023/06/03 04:11:44;;;;;;;0.73;0.40;;;;;;;11.59;60.11;101828.41;2074245;28;20045;-72
2023/06/03 04:12:49;;;;;;;1.17;0.40;;;;;;;11.84;59.67;101835.13;2074453;28;20037;-72
2023/06/03 04:14:00;;;;;;;2.72;0.70;;;;;;;11.95;59.15;101826.09;2058548;28;20039;-72
2023/06/03 04:15:09;;;;;;;1.88;0.50;;;;;;;12.11;58.07;101831.63;2062153;28;20719;-73
2023/06/03 04:16:31;;;;;;;2.58;0.63;;;;;;;12.22;57.66;101827.91;2074948;28;20049;-72
2023/06/03 04:17:37;;;;;;;1.58;0.50;;;;;;;12.39;57.58;101835.84;2085996;28;20034;-73
2023/06/03 04:18:42;;;;;;;1.13;0.60;;;;;;;12.56;56.95;101831.13;2073875;28;20045;-72
2023/06/03 04:19:47;;;;;;;2.75;0.57;;;;;;;12.75;56.41;101834.19;2067433;28;20077;-73
2023/06/03 04:20:56;;;;;;;1.63;0.40;;;;;;;12.92;55.63;101834.00;2074989;28;20031;-73
2023/06/03 04:22:00;;;;;;;0.90;0.50;;;;;;;13.05;54.97;101835.41;2067393;28;20042;-73
2023/06/03 04:23:04;;;;;;;1.52;0.50;;;;;;;13.12;55.02;101842.22;2074736;28;20789;-73
2023/06/03 04:24:07;;;;;;;1.35;0.68;;;;;;;13.36;55.02;101833.66;2074275;28;20038;-73
2023/06/03 04:25:13;;;;;;;1.58;0.52;;;;;;;13.43;54.07;101851.25;2067090;28;20035;-73
2023/06/03 04:26:21;;;;;;;1.00;0.40;;;;;;;13.61;54.26;101833.72;2075106;28;20943;-73
2023/06/03 04:27:23;;;;;;;0.85;0.40;;;;;;;13.86;54.00;101848.34;2066024;28;20078;-73
2023/06/03 04:28:25;;;;;;;0.45;0.32;;;;;;;14.02;53.02;101839.16;2058667;28;20145;-73
2023/06/03 04:29:27;;;;;;;0.60;0.50;;;;;;;14.10;52.40;101835.13;2073932;28;20912;-73
2023/06/03 04:30:29;;;;;;;1.98;0.70;;;;;;;14.11;52.00;101844.84;2066374;28;20043;-73
2023/06/03 04:31:30;;;;;;;1.00;0.50;;;;;;;14.21;51.83;101836.72;2058278;28;20039;-73
2023/06/03 04:32:32;;;;;;;0.85;0.50;;;;;;;14.09;51.57;101841.59;2074111;28;20845;-73
2023/06/03 04:33:33;;;;;;;2.00;0.60;;;;;;;14.14;52.06;101838.91;2090932;28;20033;-73
2023/06/03 04:34:36;;;;;;;2.92;0.57;;;;;;;14.23;51.97;101831.88;2082978;28;20034;-73
2023/06/03 04:35:38;;;;;;;0.82;0.50;;;;;;;14.23;51.35;101825.66;2066563;28;20047;-72
2023/06/03 04:36:40;;;;;;;1.02;0.47;;;;;;;14.43;51.80;101841.03;2066334;28;20050;-73
2023/06/03 04:37:42;;;;;;;1.50;0.40;;;;;;;14.74;51.24;101831.00;2082051;28;20033;-73
2023/06/03 04:38:48;;;;;;;1.30;0.50;;;;;;;14.78;50.03;101842.88;2066914;28;20038;-73
2023/06/03 04:39:51;;;;;;;1.83;0.60;;;;;;;14.92;50.80;101832.31;2066146;28;20145;-72
2023/06/03 04:40:54;;;;;;;1.23;0.40;;;;;;;15.15;50.09;101830.84;2075194;28;20035;-73
2023/06/03 04:41:55;;;;;;;2.88;0.40;;;;;;;15.17;48.93;101829.50;2073369;28;20800;-72
2023/06/03 04:43:03;;;;;;;1.70;0.40;;;;;;;15.24;49.06;101826.47;2074959;28;20105;-72
2023/06/03 04:44:05;;;;;;;0.73;0.50;;;;;;;15.29;48.64;101842.72;2074283;28;20824;-72
2023/06/03 04:45:09;;;;;;;2.22;0.50;;;;;;;15.37;48.41;101836.69;2066416;28;20074;-72
2023/06/03 04:46:14;;;;;;;1.38;0.60;;;;;;;15.45;48.63;101836.13;2058331;28;20054;-73
2023/06/03 04:47:19;;;;;;;1.45;0.40;;;;;;;15.63;47.65;101831.13;2058842;28;20040;-72
2023/06/03 04:48:25;;;;;;;1.95;0.50;;;;;;;15.59;47.20;101835.50;2068816;28;20038;-72
2023/06/03 04:49:32;;;;;;;2.35;0.50;;;;;;;15.75;47.73;101829.69;2074560;28;20045;-69
2023/06/03 04:50:35;;;;;;;0.80;0.57;;;;;;;15.94;47.49;101831.75;2074870;28;20031;-72
2023/06/03 04:51:44;;;;;;;0.68;0.43;;;;;;;16.02;46.85;101831.16;2074634;28;20842;-71
2023/06/03 04:52:49;;;;;;;0.82;0.52;;;;;;;16.20;47.21;101835.88;2083276;28;20161;-72
2023/06/03 04:53:52;;;;;;;2.42;0.70;;;;;;;16.42;47.04;101826.41;2073791;28;20042;-72
2023/06/03 04:54:54;;;;;;;1.30;0.77;;;;;;;16.63;46.32;101827.03;2058079;28;20043;-72
2023/06/03 04:55:59;;;;;;;1.40;0.60;;;;;;;16.72;45.72;101830.72;2058544;28;20053;-71
2023/06/03 04:57:01;;;;;;;2.05;0.65;;;;;;;16.57;45.20;101828.19;2074152;28;20861;-72
2023/06/03 04:58:07;;;;;;;1.73;0.65;;;;;;;16.38;46.20;101834.34;2082179;28;20165;-70
2023/06/03 04:59:09;;;;;;;1.88;0.55;;;;;;;16.58;46.20;101829.78;2073985;28;20069;-70
2023/06/03 05:00:22;;;;;;;1.15;0.50;;;;;;;16.70;45.20;101832.91;2060992;28;20035;-70
2023/06/03 05:01:32;;;;;;;0.80;0.57;;;;;;;16.68;44.98;101829.69;2069220;28;20042;-69
2023/06/03 05:02:37;;;;;;;1.65;0.47;;;;;;;16.70;45.20;101830.19;2074605;28;20034;-70
2023/06/03 05:03:39;;;;;;;0.55;0.43;;;;;;;16.79;44.98;101846.72;2074381;28;20123;-71